Time;durP1;ratioP1;P1;durP2;ratioP2;P2;SDS_P1;SDS_P2;PMS_P1;PMS_P2;Temp;Humidity;BMP_temperature;BMP_pressure;BME280_temperature;BME280_humidity;BME280_pressure;Samples;Min_cycle;Max_cycle;Signal;HPM_P1;HPM_P2
2023/02/27 00:01:33;;;;;;;14.43;9.38;;;3.70;99.90;;;;;;5128367;27;20043;-52
2023/02/27 00:04:00;;;;;;;14.05;10.70;;;3.60;99.90;;;;;;5132413;27;20031;-51
2023/02/27 00:06:27;;;;;;;12.07;9.30;;;3.60;99.90;;;;;;5082483;28;20051;-52
2023/02/27 00:08:53;;;;;;;12.95;9.68;;;3.60;99.90;;;;;;5124631;27;20023;-52
2023/02/27 00:11:19;;;;;;;15.07;9.50;;;3.70;99.90;;;;;;5126447;27;20092;-52
2023/02/27 00:13:45;;;;;;;12.27;8.48;;;3.60;99.90;;;;;;5122782;27;20035;-52
2023/02/27 00:16:11;;;;;;;15.95;10.68;;;3.50;99.90;;;;;;5105749;27;20084;-52
2023/02/27 00:18:36;;;;;;;15.13;9.90;;;3.60;99.90;;;;;;5085075;28;20052;-52
2023/02/27 00:21:02;;;;;;;14.68;10.50;;;3.70;99.90;;;;;;5102012;28;20483;-52
2023/02/27 00:23:28;;;;;;;13.15;9.38;;;3.70;99.90;;;;;;5047560;28;20032;-53
2023/02/27 00:25:54;;;;;;;12.52;9.00;;;3.70;99.90;;;;;;5102861;28;20020;-52
2023/02/27 00:28:21;;;;;;;14.32;10.30;;;3.60;99.90;;;;;;5097750;28;20024;-52
2023/02/27 00:30:47;;;;;;;16.40;11.55;;;3.50;99.90;;;;;;5068259;28;20052;-53
2023/02/27 00:33:13;;;;;;;15.30;10.60;;;3.40;99.90;;;;;;5106251;28;20025;-52
2023/02/27 00:35:38;;;;;;;13.43;8.82;;;3.30;99.90;;;;;;5097630;28;20078;-53
2023/02/27 00:38:04;;;;;;;12.55;9.60;;;3.30;99.90;;;;;;5106188;28;20032;-51
2023/02/27 00:40:30;;;;;;;10.80;7.38;;;3.40;99.90;;;;;;5095392;28;20126;-52
2023/02/27 00:42:56;;;;;;;15.07;9.13;;;3.20;99.90;;;;;;5098776;28;20051;-52
2023/02/27 00:45:22;;;;;;;11.38;7.68;;;3.30;99.90;;;;;;5086082;28;20044;-52
2023/02/27 00:47:47;;;;;;;14.40;9.55;;;3.10;99.90;;;;;;5105323;28;20026;-55
2023/02/27 00:50:14;;;;;;;8.23;4.75;;;;;;;;;;5101085;28;20413;-52
2023/02/27 00:52:40;;;;;;;12.93;8.40;;;2.90;99.90;;;;;;5109723;28;20085;-51
2023/02/27 00:55:06;;;;;;;7.82;5.63;;;2.90;99.90;;;;;;5105438;27;20035;-52
2023/02/27 00:57:32;;;;;;;9.60;6.75;;;2.80;99.90;;;;;;5122600;27;20062;-52
2023/02/27 00:59:57;;;;;;;9.48;6.78;;;2.80;99.90;;;;;;5118193;27;20031;-52
2023/02/27 01:02:24;;;;;;;6.57;4.63;;;2.50;99.90;;;;;;5126312;27;20035;-52
2023/02/27 01:04:49;;;;;;;8.60;6.13;;;1.50;99.90;;;;;;5125773;27;20031;-52
2023/02/27 01:07:16;;;;;;;11.02;6.35;;;2.70;99.90;;;;;;5115059;27;20023;-52
2023/02/27 01:09:42;;;;;;;6.32;4.55;;;2.50;99.90;;;;;;5123454;27;20048;-53
2023/02/27 01:12:07;;;;;;;8.88;6.13;;;2.50;99.90;;;;;;5116960;27;20385;-52
2023/02/27 01:14:33;;;;;;;8.85;5.45;;;2.60;99.90;;;;;;5121923;27;20118;-53
2023/02/27 01:16:59;;;;;;;7.57;6.07;;;2.80;99.90;;;;;;5125471;27;20473;-52
2023/02/27 01:19:25;;;;;;;10.80;6.70;;;2.90;99.90;;;;;;5126030;27;20028;-52
2023/02/27 01:21:51;;;;;;;8.60;7.18;;;2.90;99.90;;;;;;5125976;27;20378;-52
2023/02/27 01:24:18;;;;;;;9.48;6.43;;;2.90;99.90;;;;;;5124758;27;20072;-52
2023/02/27 01:26:44;;;;;;;10.43;7.90;;;2.90;99.90;;;;;;5121628;27;20047;-52
2023/02/27 01:29:10;;;;;;;11.00;8.57;;;3.00;99.90;;;;;;5117741;27;20084;-52
2023/02/27 01:31:36;;;;;;;9.80;7.85;;;3.40;99.90;;;;;;5125507;27;20027;-52
2023/02/27 01:34:01;;;;;;;9.95;6.65;;;3.40;99.90;;;;;;5125442;27;20038;-52
2023/02/27 01:36:27;;;;;;;10.15;7.95;;;3.30;99.90;;;;;;5119961;27;20397;-52
2023/02/27 01:38:53;;;;;;;9.57;7.95;;;3.40;99.90;;;;;;5117943;27;20475;-52
2023/02/27 01:41:19;;;;;;;8.55;7.03;;;3.20;99.90;;;;;;5124228;27;20062;-52
2023/02/27 01:43:56;;;;;;;10.85;7.38;;;3.30;99.90;;;;;;5121204;27;20066;-51
2023/02/27 01:46:23;;;;;;;11.43;7.47;;;3.30;99.90;;;;;;5119814;27;20034;-52
2023/02/27 01:48:53;;;;;;;9.93;7.00;;;3.50;99.90;;;;;;5120425;27;20027;-51
2023/02/27 01:51:20;;;;;;;10.00;7.20;;;3.50;99.90;;;;;;5125356;27;20381;-52
2023/02/27 01:53:51;;;;;;;8.45;7.15;;;3.50;99.90;;;;;;5125070;27;20038;-52
2023/02/27 01:56:18;;;;;;;7.15;4.78;;;3.50;99.90;;;;;;5117808;27;20027;-52
2023/02/27 01:58:46;;;;;;;10.18;7.10;;;3.30;99.90;;;;;;5123241;27;20019;-52
2023/02/27 02:01:13;;;;;;;10.23;8.07;;;3.50;99.90;;;;;;5120226;27;20043;-52
2023/02/27 02:03:46;;;;;;;9.63;7.25;;;3.50;99.90;;;;;;5124862;27;20034;-52
2023/02/27 02:06:12;;;;;;;9.75;7.82;;;3.50;99.90;;;;;;5124719;27;20032;-52
2023/02/27 02:08:44;;;;;;;9.20;6.60;;;3.50;99.90;;;;;;5122834;27;20030;-52
2023/02/27 02:11:12;;;;;;;10.30;7.40;;;3.10;99.90;;;;;;5116671;27;20071;-52
2023/02/27 02:13:39;;;;;;;9.52;5.80;;;3.30;99.90;;;;;;5123798;27;20034;-52
2023/02/27 02:16:39;;;;;;;12.40;8.02;;;3.30;99.90;;;;;;5122320;28;20028;-51
2023/02/27 02:19:13;;;;;;;9.45;7.53;;;3.20;99.90;;;;;;5124866;28;20035;-51
2023/02/27 02:22:08;;;;;;;9.65;7.93;;;3.20;99.90;;;;;;5124643;28;20035;-52
2023/02/27 02:25:02;;;;;;;12.30;7.80;;;3.20;99.90;;;;;;5124855;28;20042;-52
2023/02/27 02:27:49;;;;;;;10.43;7.82;;;3.20;99.90;;;;;;5127492;28;20031;-53
2023/02/27 02:30:23;;;;;;;7.32;4.78;;;3.20;99.90;;;;;;5127125;28;20435;-52
2023/02/27 02:33:08;;;;;;;8.77;7.05;;;3.10;99.90;;;;;;5127076;28;20062;-52
2023/02/27 02:36:21;;;;;;;11.05;8.80;;;3.20;99.90;;;;;;5115905;28;20050;-51
2023/02/27 02:39:08;;;;;;;10.45;8.60;;;3.20;99.90;;;;;;5123320;28;20111;-52
2023/02/27 02:42:03;;;;;;;11.75;7.93;;;3.30;99.90;;;;;;5120205;28;20039;-51
2023/02/27 02:44:35;;;;;;;11.65;8.93;;;3.40;99.90;;;;;;5127260;28;20031;-52
2023/02/27 02:47:00;;;;;;;7.93;5.80;;;3.40;99.90;;;;;;5125331;28;20043;-51
2023/02/27 02:49:33;;;;;;;9.85;7.80;;;3.40;99.90;;;;;;5136014;27;20359;-52
2023/02/27 02:52:08;;;;;;;10.20;8.00;;;3.30;99.90;;;;;;5120505;28;20071;-52
2023/02/27 02:54:41;;;;;;;11.82;8.23;;;3.40;99.90;;;;;;5122538;28;20035;-52
2023/02/27 02:57:27;;;;;;;10.45;7.60;;;3.30;99.90;;;;;;5122679;28;20042;-52
2023/02/27 03:00:08;;;;;;;7.97;6.47;;;3.50;99.90;;;;;;5122790;28;20406;-52
2023/02/27 03:02:44;;;;;;;11.93;8.35;;;3.40;99.90;;;;;;5124785;27;20049;-52
2023/02/27 03:05:18;;;;;;;11.38;8.20;;;3.60;99.90;;;;;;5112469;28;20491;-51
2023/02/27 03:08:11;;;;;;;9.50;6.18;;;3.60;99.90;;;;;;5121728;28;20541;-51
2023/02/27 03:10:50;;;;;;;10.80;7.57;;;3.60;99.90;;;;;;5121003;28;20055;-52
2023/02/27 03:13:51;;;;;;;9.10;6.97;;;3.70;99.90;;;;;;5122104;28;20028;-51
2023/02/27 03:16:24;;;;;;;8.25;6.03;;;3.70;99.90;;;;;;5122265;28;20031;-52
2023/02/27 03:18:57;;;;;;;8.43;6.15;;;3.80;99.90;;;;;;5121959;28;20023;-52
2023/02/27 03:21:35;;;;;;;7.75;6.18;;;3.80;99.90;;;;;;5124175;28;20028;-52
2023/02/27 03:24:03;;;;;;;6.97;5.43;;;3.70;99.90;;;;;;5124139;28;20055;-53
2023/02/27 03:26:35;;;;;;;11.02;7.28;;;3.60;99.90;;;;;;5115509;28;20019;-52
2023/02/27 03:29:06;;;;;;;8.93;7.13;;;3.70;99.90;;;;;;5124669;27;20118;-52
2023/02/27 03:31:45;;;;;;;5.53;4.07;;;3.60;99.90;;;;;;5125431;27;20030;-52
2023/02/27 03:34:26;;;;;;;10.05;6.45;;;3.50;99.90;;;;;;5126595;27;20087;-52
2023/02/27 03:37:06;;;;;;;10.57;7.72;;;3.50;99.90;;;;;;5130354;27;20035;-52
2023/02/27 03:39:56;;;;;;;11.80;8.73;;;3.50;99.90;;;;;;5125575;27;20517;-52
2023/02/27 03:42:35;;;;;;;10.05;7.45;;;3.60;99.90;;;;;;5118905;27;20039;-52
2023/02/27 03:45:06;;;;;;;10.18;7.88;;;3.60;99.90;;;;;;5128296;27;20487;-52
2023/02/27 03:47:33;;;;;;;10.27;5.85;;;3.50;99.90;;;;;;5124598;27;20036;-52
2023/02/27 03:49:59;;;;;;;10.68;7.90;;;3.50;99.90;;;;;;5121171;27;20051;-52
2023/02/27 03:52:27;;;;;;;11.02;8.60;;;3.50;99.90;;;;;;5129137;27;20035;-51
2023/02/27 03:54:58;;;;;;;9.63;8.20;;;3.60;99.90;;;;;;5142961;27;20133;-52
2023/02/27 03:57:24;;;;;;;9.70;7.90;;;3.80;99.90;;;;;;5127381;27;20493;-51
2023/02/27 03:59:50;;;;;;;9.63;7.72;;;3.60;99.90;;;;;;5125155;27;20031;-52
2023/02/27 04:02:16;;;;;;;10.35;7.90;;;3.60;99.90;;;;;;5118286;27;20517;-52
2023/02/27 04:04:42;;;;;;;10.07;7.40;;;3.60;99.90;;;;;;5127039;27;20035;-52
2023/02/27 04:07:37;;;;;;;9.93;7.32;;;3.70;99.90;;;;;;5141252;27;20035;-52
2023/02/27 04:10:24;;;;;;;10.52;8.43;;;3.70;99.90;;;;;;5093369;28;20043;-52
2023/02/27 04:13:13;;;;;;;11.65;7.95;;;3.80;99.90;;;;;;5092414;28;20083;-52
2023/02/27 04:16:18;;;;;;;11.55;8.95;;;3.80;99.90;;;;;;5088575;28;20122;-52
2023/02/27 04:19:05;;;;;;;11.30;8.32;;;3.90;99.90;;;;;;4992447;28;20045;-52
2023/02/27 04:21:38;;;;;;;19.48;14.80;;;4.00;99.90;;;;;;4992607;28;20581;-52
2023/02/27 04:24:22;;;;;;;12.93;9.70;;;4.00;99.90;;;;;;4992705;28;20046;-52
2023/02/27 04:26:57;;;;;;;15.40;12.65;;;3.90;99.90;;;;;;4992774;28;20725;-53
2023/02/27 04:29:45;;;;;;;13.40;10.45;;;3.90;99.90;;;;;;4992634;28;20046;-53
2023/02/27 04:32:21;;;;;;;12.95;9.80;;;4.10;99.90;;;;;;4992642;28;20045;-52
2023/02/27 04:34:55;;;;;;;14.90;11.15;;;4.20;99.90;;;;;;4992956;28;20085;-53
2023/02/27 04:37:46;;;;;;;17.02;14.40;;;4.30;99.90;;;;;;4989057;28;20042;-52
2023/02/27 04:40:15;;;;;;;17.55;12.27;;;4.40;99.90;;;;;;4973237;28;20050;-52
2023/02/27 04:42:47;;;;;;;21.60;15.45;;;4.30;99.90;;;;;;4972352;28;20410;-53
2023/02/27 04:45:17;;;;;;;20.52;13.88;;;4.30;99.90;;;;;;4973089;28;20057;-52
2023/02/27 04:47:52;;;;;;;14.45;10.82;;;4.30;99.90;;;;;;5010925;28;20384;-53
2023/02/27 04:50:24;;;;;;;15.73;12.35;;;4.20;99.90;;;;;;5039020;28;20550;-52
2023/02/27 04:53:09;;;;;;;17.35;12.60;;;4.10;99.90;;;;;;5043303;28;20108;-53
2023/02/27 04:55:46;;;;;;;12.50;8.98;;;4.20;99.90;;;;;;5060961;28;20035;-52
2023/02/27 04:58:20;;;;;;;14.80;11.30;;;4.00;99.90;;;;;;5120265;27;20035;-53
2023/02/27 05:00:50;;;;;;;10.63;8.82;;;3.90;99.90;;;;;;5123839;27;20151;-53
2023/02/27 05:03:22;;;;;;;11.88;9.77;;;3.90;99.90;;;;;;5124089;27;20031;-52
2023/02/27 05:05:52;;;;;;;10.50;7.78;;;4.00;99.90;;;;;;5124301;27;20474;-52
2023/02/27 05:08:23;;;;;;;10.27;7.60;;;4.00;99.90;;;;;;5123682;27;20127;-52
2023/02/27 05:10:56;;;;;;;12.17;9.93;;;3.90;99.90;;;;;;5119512;27;20478;-53
2023/02/27 05:13:44;;;;;;;13.23;9.27;;;4.10;99.90;;;;;;5123814;27;20298;-52
2023/02/27 05:16:25;;;;;;;9.45;8.43;;;4.30;99.90;;;;;;5119173;27;20020;-52
2023/02/27 05:18:52;;;;;;;12.70;9.52;;;4.30;99.90;;;;;;5125858;27;20059;-52
2023/02/27 05:21:59;;;;;;;10.93;8.50;;;4.30;99.90;;;;;;5123112;27;20038;-53
2023/02/27 05:24:34;;;;;;;10.27;7.78;;;4.40;99.90;;;;;;5125761;27;20026;-52
2023/02/27 05:27:05;;;;;;;11.07;8.27;;;4.30;99.90;;;;;;5120017;27;20172;-53
2023/02/27 05:30:13;;;;;;;9.95;7.90;;;4.50;99.90;;;;;;5121422;27;20119;-52
2023/02/27 05:32:41;;;;;;;8.10;6.95;;;4.40;99.90;;;;;;5124075;27;20068;-52
2023/02/27 05:35:15;;;;;;;10.88;7.82;;;4.30;99.90;;;;;;5117533;27;20053;-52
2023/02/27 05:37:43;;;;;;;11.50;8.52;;;4.30;99.90;;;;;;5125003;27;20027;-52
2023/02/27 05:40:14;;;;;;;11.93;9.38;;;4.30;99.90;;;;;;5116415;27;20023;-52
2023/02/27 05:42:46;;;;;;;13.45;9.75;;;4.40;99.90;;;;;;5129380;27;20031;-52
2023/02/27 05:45:24;;;;;;;12.45;9.20;;;4.60;99.90;;;;;;5117705;27;20043;-53
2023/02/27 05:48:13;;;;;;;8.45;7.32;;;4.70;99.90;;;;;;5126923;27;20038;-53
2023/02/27 05:50:40;;;;;;;11.50;8.13;;;4.60;99.90;;;;;;5126675;27;20034;-53
2023/02/27 05:53:14;;;;;;;11.40;8.40;;;4.70;99.90;;;;;;5129390;27;20027;-65
2023/02/27 05:55:52;;;;;;;9.60;8.60;;;4.60;99.90;;;;;;5125559;27;20114;-53
2023/02/27 05:58:27;;;;;;;12.50;9.50;;;4.70;99.90;;;;;;5124129;27;20039;-52
2023/02/27 06:01:01;;;;;;;10.93;8.90;;;4.80;99.90;;;;;;5128597;27;20052;-52
2023/02/27 06:03:30;;;;;;;10.15;8.68;;;4.80;99.90;;;;;;5130404;27;20042;-52
2023/02/27 06:05:57;;;;;;;11.77;9.93;;;;;;;;;;5117051;27;20110;-52
2023/02/27 06:08:23;;;;;;;13.23;9.75;;;5.00;99.90;;;;;;5125602;27;20067;-53
2023/02/27 06:10:49;;;;;;;13.57;10.68;;;5.00;99.90;;;;;;5124053;27;20037;-52
2023/02/27 06:13:18;;;;;;;20.70;17.52;;;5.10;99.90;;;;;;5104585;28;20028;-52
2023/02/27 06:15:44;;;;;;;33.28;21.77;;;5.00;99.90;;;;;;5116347;28;20128;-52
2023/02/27 06:18:11;;;;;;;18.13;15.25;;;5.10;99.90;;;;;;5127782;28;20050;-53
2023/02/27 06:20:38;;;;;;;12.35;10.23;;;5.30;99.90;;;;;;5107198;28;20041;-52
2023/02/27 06:23:05;;;;;;;15.70;13.00;;;5.40;99.90;;;;;;5130704;28;20081;-52
2023/02/27 06:25:31;;;;;;;15.25;12.20;;;5.30;99.90;;;;;;5132522;28;20423;-53
2023/02/27 06:27:57;;;;;;;14.85;12.32;;;5.30;99.90;;;;;;5131272;28;20050;-52
2023/02/27 06:30:23;;;;;;;12.88;10.82;;;5.50;99.90;;;;;;5131286;27;20059;-53
2023/02/27 06:32:48;;;;;;;18.48;15.60;;;5.50;99.90;;;;;;5132477;28;20027;-53
2023/02/27 06:35:14;;;;;;;28.65;26.00;;;5.40;99.90;;;;;;5127164;28;20031;-52
2023/02/27 06:37:40;;;;;;;20.58;18.48;;;5.30;99.90;;;;;;5123775;28;20031;-52
2023/02/27 06:40:13;;;;;;;12.63;11.13;;;5.40;99.90;;;;;;5131285;28;20027;-52
2023/02/27 06:42:40;;;;;;;12.38;11.00;;;5.40;99.90;;;;;;5125279;28;20035;-52
2023/02/27 06:45:06;;;;;;;14.98;12.60;;;5.70;99.90;;;;;;5116950;27;20023;-52
2023/02/27 06:47:33;;;;;;;14.43;12.35;;;5.70;99.90;;;;;;5119562;28;20052;-53
2023/02/27 06:49:59;;;;;;;14.27;10.85;;;5.50;99.90;;;;;;5131381;27;20023;-52
2023/02/27 06:52:25;;;;;;;14.52;12.00;;;5.60;99.90;;;;;;5123615;28;20027;-53
2023/02/27 06:54:50;;;;;;;11.85;9.50;;;5.80;99.90;;;;;;5090942;28;20088;-52
2023/02/27 06:57:17;;;;;;;13.52;11.02;;;;;;;;;;5133606;27;20125;-52
2023/02/27 06:59:44;;;;;;;13.85;11.25;;;5.80;99.90;;;;;;5127183;28;20031;-52
2023/02/27 07:02:12;;;;;;;13.98;12.40;;;5.90;99.90;;;;;;5122438;27;20039;-53
2023/02/27 07:04:37;;;;;;;16.23;14.55;;;5.90;99.90;;;;;;5124086;27;20027;-52
2023/02/27 07:07:03;;;;;;;14.57;12.80;;;;;;;;;;5124067;27;20027;-52
2023/02/27 07:09:29;;;;;;;11.93;10.68;;;6.00;99.90;;;;;;5121546;27;20030;-53
2023/02/27 07:11:55;;;;;;;12.25;10.32;;;5.70;99.90;;;;;;5126445;27;20102;-52
2023/02/27 07:14:21;;;;;;;14.07;10.15;;;5.80;99.90;;;;;;5065556;27;20035;-53
2023/02/27 07:16:49;;;;;;;14.20;10.93;;;5.60;99.90;;;;;;5134362;27;20751;-53
2023/02/27 07:19:17;;;;;;;13.77;11.20;;;5.60;99.90;;;;;;5115780;27;20476;-53
2023/02/27 07:21:43;;;;;;;14.93;10.50;;;5.60;99.90;;;;;;5123507;27;20095;-53
2023/02/27 07:24:09;;;;;;;16.30;12.25;;;5.30;99.90;;;;;;5127243;27;20023;-52
2023/02/27 07:26:35;;;;;;;15.85;12.07;;;5.60;99.90;;;;;;5122244;27;20027;-52
2023/02/27 07:29:02;;;;;;;15.70;11.35;;;5.60;99.90;;;;;;5120120;27;20122;-53
2023/02/27 07:31:28;;;;;;;16.65;12.38;;;5.50;99.90;;;;;;5119693;27;20096;-53
2023/02/27 07:33:53;;;;;;;20.30;16.80;;;5.60;99.90;;;;;;5090147;27;20031;-52
2023/02/27 07:36:19;;;;;;;39.97;27.73;;;5.80;99.90;;;;;;5125811;27;20123;-53
2023/02/27 07:38:45;;;;;;;35.28;26.05;;;5.90;99.90;;;;;;5134426;27;20023;-52
2023/02/27 07:41:11;;;;;;;385.52;221.48;;;6.10;99.90;;;;;;5128677;27;20475;-56
2023/02/27 07:43:36;;;;;;;52.58;35.95;;;5.90;99.90;;;;;;5127011;27;20031;-56
2023/02/27 07:46:02;;;;;;;59.15;40.83;;;5.80;99.90;;;;;;5135561;27;20045;-53
2023/02/27 07:48:29;;;;;;;73.10;52.40;;;;;;;;;;5137484;27;20027;-62
2023/02/27 07:50:55;;;;;;;42.47;29.23;;;5.90;99.90;;;;;;5135478;27;20044;-52
2023/02/27 07:53:21;;;;;;;37.17;25.50;;;5.50;99.90;;;;;;5137228;27;20375;-52
2023/02/27 07:55:47;;;;;;;23.88;17.77;;;5.80;99.90;;;;;;5115017;27;20043;-56
2023/02/27 07:58:13;;;;;;;22.42;17.15;;;5.90;99.90;;;;;;5116676;27;20042;-56
2023/02/27 08:00:38;;;;;;;22.27;15.85;;;5.70;99.90;;;;;;5135826;27;20119;-51
2023/02/27 08:03:04;;;;;;;20.92;15.43;;;5.90;99.90;;;;;;5131457;27;20027;-51
2023/02/27 08:05:30;;;;;;;24.02;17.70;;;;;;;;;;5113439;27;20122;-51
2023/02/27 08:07:56;;;;;;;23.55;15.95;;;6.20;99.90;;;;;;5132965;27;20023;-51
2023/02/27 08:10:22;;;;;;;18.40;14.60;;;6.40;99.90;;;;;;5133687;27;20042;-50
2023/02/27 08:12:47;;;;;;;18.65;14.57;;;6.40;99.90;;;;;;5080178;27;20045;-50
2023/02/27 08:15:13;;;;;;;15.07;12.52;;;6.50;99.90;;;;;;5132210;27;20363;-51
2023/02/27 08:17:39;;;;;;;20.85;14.57;;;6.70;99.90;;;;;;5132824;27;20023;-51
2023/02/27 08:20:06;;;;;;;15.15;12.88;;;6.60;99.90;;;;;;5129536;27;20028;-50
2023/02/27 08:22:32;;;;;;;18.10;14.38;;;6.30;99.90;;;;;;5125862;27;20039;-51
2023/02/27 08:24:57;;;;;;;17.05;14.25;;;6.30;99.90;;;;;;5122341;27;20482;-51
2023/02/27 08:27:23;;;;;;;18.48;15.15;;;6.00;99.90;;;;;;5130073;27;20023;-52
2023/02/27 08:29:49;;;;;;;17.52;12.93;;;6.40;99.90;;;;;;5130930;27;20030;-56
2023/02/27 08:32:15;;;;;;;19.08;15.05;;;6.50;99.90;;;;;;5111848;27;20040;-54
2023/02/27 08:34:40;;;;;;;19.77;14.68;;;6.60;99.90;;;;;;5126248;27;20027;-49
2023/02/27 08:37:06;;;;;;;14.43;11.80;;;6.70;99.90;;;;;;5133420;27;20032;-49
2023/02/27 08:39:32;;;;;;;20.00;16.17;;;6.70;99.90;;;;;;5114754;27;20052;-50
2023/02/27 08:41:57;;;;;;;15.82;12.90;;;6.80;99.90;;;;;;5126177;27;20035;-53
2023/02/27 08:44:23;;;;;;;21.38;15.38;;;6.40;99.90;;;;;;5123484;27;20521;-52
2023/02/27 08:46:49;;;;;;;16.92;14.38;;;6.70;99.90;;;;;;5121507;27;20023;-52
2023/02/27 08:49:15;;;;;;;18.67;14.55;;;7.00;99.90;;;;;;5119739;27;20055;-55
2023/02/27 08:51:40;;;;;;;17.63;14.65;;;7.30;99.90;;;;;;5125613;27;20088;-52
2023/02/27 08:54:06;;;;;;;20.75;15.45;;;7.40;99.90;;;;;;5132615;27;20038;-52
2023/02/27 08:56:33;;;;;;;16.02;12.40;;;7.30;99.90;;;;;;5131437;27;20028;-55
2023/02/27 08:58:59;;;;;;;16.77;11.85;;;7.10;99.90;;;;;;5116020;27;20081;-53
2023/02/27 09:01:30;;;;;;;16.10;11.32;;;6.80;99.90;;;;;;5128172;27;20399;-55
2023/02/27 09:03:55;;;;;;;17.95;14.05;;;6.70;99.90;;;;;;5124667;27;20029;-52
2023/02/27 09:06:21;;;;;;;19.60;13.68;;;6.80;99.90;;;;;;5126165;27;20054;-52
2023/02/27 09:08:47;;;;;;;16.63;13.43;;;7.00;99.90;;;;;;5128054;27;20028;-54
2023/02/27 09:11:13;;;;;;;19.77;15.48;;;7.30;99.90;;;;;;5125171;27;20093;-55
2023/02/27 09:13:38;;;;;;;55.10;35.13;;;7.50;99.90;;;;;;5124785;27;20032;-56
2023/02/27 09:16:05;;;;;;;16.73;12.75;;;7.40;99.90;;;;;;5132446;27;20443;-53
2023/02/27 09:18:30;;;;;;;46.88;29.92;;;7.60;99.90;;;;;;5110146;28;20478;-53
2023/02/27 09:20:57;;;;;;;16.13;13.65;;;7.20;99.90;;;;;;5129859;27;20031;-53
2023/02/27 09:23:22;;;;;;;14.82;12.20;;;7.40;99.90;;;;;;5125777;27;20054;-53
2023/02/27 09:25:48;;;;;;;18.48;14.30;;;7.50;99.90;;;;;;5116795;27;20112;-53
2023/02/27 09:28:14;;;;;;;15.23;12.50;;;7.50;99.90;;;;;;5127234;27;20046;-53
2023/02/27 09:30:41;;;;;;;15.95;13.13;;;7.50;99.90;;;;;;5109971;27;20405;-53
2023/02/27 09:33:06;;;;;;;18.20;13.57;;;7.50;99.90;;;;;;5122552;27;20063;-53
2023/02/27 09:35:32;;;;;;;15.88;14.05;;;7.70;99.90;;;;;;5128729;27;20104;-55
2023/02/27 09:37:58;;;;;;;15.32;11.75;;;7.70;99.90;;;;;;5133391;27;20042;-53
2023/02/27 09:40:30;;;;;;;17.40;14.68;;;7.70;99.90;;;;;;5131317;27;20042;-53
2023/02/27 09:43:01;;;;;;;14.55;11.25;;;7.90;99.90;;;;;;5131364;27;20297;-53
2023/02/27 09:45:30;;;;;;;16.07;12.23;;;7.90;99.90;;;;;;5131628;27;20061;-53
2023/02/27 09:48:12;;;;;;;16.13;14.38;;;7.80;99.90;;;;;;5132147;27;20027;-53
2023/02/27 09:50:38;;;;;;;13.45;10.82;;;7.80;99.90;;;;;;5130754;27;20026;-52
2023/02/27 09:53:26;;;;;;;14.05;11.27;;;7.50;99.90;;;;;;5132457;27;20023;-53
2023/02/27 09:56:02;;;;;;;18.92;14.93;;;7.30;99.90;;;;;;5129121;27;20042;-53
2023/02/27 09:59:00;;;;;;;21.67;15.82;;;7.80;99.90;;;;;;5127412;27;20466;-54
2023/02/27 10:01:34;;;;;;;16.70;12.75;;;7.80;99.90;;;;;;5068392;28;20052;-53
2023/02/27 10:04:14;;;;;;;18.77;14.63;;;8.00;99.90;;;;;;5068868;28;20044;-52
2023/02/27 10:06:51;;;;;;;14.90;12.50;;;8.40;99.90;;;;;;5067023;28;20116;-53
2023/02/27 10:09:19;;;;;;;14.80;11.40;;;8.50;99.90;;;;;;5061628;28;20033;-53
2023/02/27 10:11:46;;;;;;;14.50;12.65;;;;;;;;;;5066492;28;20119;-53
2023/02/27 10:14:38;;;;;;;20.17;15.68;;;9.20;99.90;;;;;;5063923;28;20488;-51
2023/02/27 10:17:11;;;;;;;14.45;12.23;;;;;;;;;;5066715;28;20085;-51
2023/02/27 10:19:43;;;;;;;15.82;10.85;;;9.10;99.90;;;;;;5067847;28;20106;-51
2023/02/27 10:22:21;;;;;;;16.90;13.43;;;9.20;99.90;;;;;;5069058;28;20071;-51
2023/02/27 10:25:13;;;;;;;13.77;11.52;;;9.20;99.90;;;;;;5027685;28;20554;-52
2023/02/27 10:27:41;;;;;;;14.43;11.63;;;;;;;;;;5028365;28;20045;-51
2023/02/27 10:30:28;;;;;;;17.55;13.75;;;9.30;99.90;;;;;;5029360;28;20785;-52
2023/02/27 10:33:40;;;;;;;15.55;13.75;;;9.40;99.90;;;;;;5006462;28;20042;-52
2023/02/27 10:36:11;;;;;;;16.00;13.00;;;9.30;99.90;;;;;;4950164;29;20151;-51
2023/02/27 10:39:03;;;;;;;17.55;13.80;;;9.30;99.90;;;;;;4963004;28;20070;-52
2023/02/27 10:41:29;;;;;;;13.00;10.77;;;9.30;99.90;;;;;;4975627;28;20070;-52
2023/02/27 10:43:58;;;;;;;15.95;12.27;;;9.50;99.90;;;;;;4974723;28;20382;-51
2023/02/27 10:46:29;;;;;;;16.33;12.77;;;9.40;99.90;;;;;;4974806;28;20102;-51
2023/02/27 10:48:58;;;;;;;14.50;12.33;;;9.60;99.90;;;;;;4974986;28;20027;-52
2023/02/27 10:51:33;;;;;;;13.65;11.98;;;9.40;99.90;;;;;;4974836;28;20043;-51
2023/02/27 10:54:22;;;;;;;12.73;10.52;;;9.10;99.90;;;;;;4970915;28;20074;-52
2023/02/27 10:56:58;;;;;;;14.93;12.27;;;9.00;99.90;;;;;;4989179;28;20387;-52
2023/02/27 10:59:30;;;;;;;14.05;12.27;;;8.80;99.90;;;;;;4993167;28;20046;-51
2023/02/27 11:01:58;;;;;;;14.95;12.60;;;8.80;99.90;;;;;;4990415;28;20414;-51
2023/02/27 11:04:35;;;;;;;15.82;12.90;;;9.10;99.90;;;;;;5027974;28;20029;-52
2023/02/27 11:07:07;;;;;;;17.80;14.02;;;9.20;99.90;;;;;;5033270;28;20132;-55
2023/02/27 11:09:33;;;;;;;;;;;8.90;99.90;;;;;;5036193;28;20153;-52
2023/02/27 11:12:26;;;;;;;16.27;12.02;;;8.90;99.90;;;;;;5051759;27;20358;-52
2023/02/27 11:14:55;;;;;;;14.60;12.30;;;8.50;99.90;;;;;;5113189;28;20380;-52
2023/02/27 11:17:31;;;;;;;15.60;12.95;;;8.80;99.90;;;;;;5113189;28;20115;-52
2023/02/27 11:19:59;;;;;;;18.83;14.48;;;8.90;99.90;;;;;;5112305;28;20098;-52
2023/02/27 11:22:28;;;;;;;16.30;13.00;;;8.70;99.90;;;;;;5078825;28;20122;-50
2023/02/27 11:25:18;;;;;;;18.50;14.40;;;8.80;99.90;;;;;;5091327;28;20044;-56
2023/02/27 11:27:45;;;;;;;15.93;12.52;;;8.70;99.90;;;;;;5113442;28;20066;-51
2023/02/27 11:30:11;;;;;;;19.35;12.15;;;8.80;99.90;;;;;;5108968;28;20594;-51
2023/02/27 11:32:44;;;;;;;16.85;12.57;;;8.70;99.90;;;;;;5111031;28;20035;-51
2023/02/27 11:35:31;;;;;;;15.70;12.93;;;8.50;99.90;;;;;;5069432;28;20598;-53
2023/02/27 11:38:05;;;;;;;16.33;12.73;;;;;;;;;;5112728;28;20038;-53
2023/02/27 11:40:33;;;;;;;19.42;13.30;;;9.10;99.90;;;;;;5088317;28;20495;-54
2023/02/27 11:43:42;;;;;;;14.05;12.57;;;9.20;99.90;;;;;;5113275;28;20035;-52
2023/02/27 11:46:18;;;;;;;15.98;12.10;;;9.30;99.90;;;;;;5021963;28;20053;-52
2023/02/27 11:48:51;;;;;;;15.20;12.38;;;9.70;99.90;;;;;;5021985;28;20485;-52
2023/02/27 11:51:35;;;;;;;14.98;12.20;;;9.90;99.90;;;;;;5023624;28;20038;-53
2023/02/27 11:54:12;;;;;;;14.75;11.95;;;10.00;99.90;;;;;;5031125;28;20042;-54
2023/02/27 11:56:43;;;;;;;14.45;11.93;;;10.10;99.90;;;;;;5023985;28;20144;-57
2023/02/27 11:59:16;;;;;;;12.25;10.95;;;;;;;;;;5016116;28;20042;-51
2023/02/27 12:01:51;;;;;;;15.10;12.40;;;9.90;99.90;;;;;;5030819;28;20041;-50
2023/02/27 12:04:40;;;;;;;15.00;12.25;;;10.00;99.90;;;;;;5032470;28;20037;-55
2023/02/27 12:07:32;;;;;;;18.85;14.90;;;10.10;99.90;;;;;;5022231;28;20034;-52
2023/02/27 12:10:13;;;;;;;27.63;18.90;;;9.90;99.90;;;;;;4998307;28;20365;-54
2023/02/27 12:13:04;;;;;;;24.15;17.30;;;9.90;99.90;;;;;;5031199;28;20104;-55
2023/02/27 12:15:51;;;;;;;28.13;19.90;;;10.30;99.90;;;;;;5020065;28;20026;-54
2023/02/27 12:18:46;;;;;;;56.90;41.75;;;10.10;99.90;;;;;;5023461;28;20029;-56
2023/02/27 12:21:20;;;;;;;22.33;17.77;;;10.10;99.90;;;;;;5021520;28;20436;-57
2023/02/27 12:23:56;;;;;;;23.30;16.88;;;10.00;99.90;;;;;;5094793;27;20063;-56
2023/02/27 12:26:36;;;;;;;16.58;13.85;;;9.70;99.90;;;;;;5124296;27;20039;-52
2023/02/27 12:29:29;;;;;;;20.80;14.57;;;9.20;99.90;;;;;;5124156;27;20035;-54
2023/02/27 12:32:21;;;;;;;19.52;16.25;;;9.00;99.90;;;;;;5121529;27;20028;-54
2023/02/27 12:34:53;;;;;;;20.13;15.88;;;9.30;99.90;;;;;;5128707;27;20027;-57
2023/02/27 12:37:24;;;;;;;20.50;14.95;;;9.00;99.90;;;;;;5122550;27;20031;-55
2023/02/27 12:39:53;;;;;;;22.58;17.45;;;8.90;99.90;;;;;;5118943;27;20374;-52
2023/02/27 12:42:41;;;;;;;23.92;18.85;;;8.70;99.90;;;;;;5129900;27;20035;-50
2023/02/27 12:45:26;;;;;;;24.52;18.10;;;8.40;99.90;;;;;;5129620;27;20427;-52
2023/02/27 12:48:11;;;;;;;26.58;21.13;;;8.50;99.90;;;;;;5106703;27;20042;-55
2023/02/27 12:50:49;;;;;;;24.08;19.30;;;;;;;;;;5123967;27;20069;-56
2023/02/27 12:53:27;;;;;;;24.88;18.88;;;;;;;;;;5133876;27;20094;-52
2023/02/27 12:55:57;;;;;;;21.15;17.80;;;;;;;;;;5103155;27;20446;-52
2023/02/27 12:58:29;;;;;;;22.60;18.02;;;;;;;;;;5127529;27;20045;-55
2023/02/27 13:00:59;;;;;;;27.20;19.35;;;;;;;;;;5125641;27;20052;-54
2023/02/27 13:03:47;;;;;;;23.52;18.75;;;;;;;;;;5129368;27;20031;-56
2023/02/27 13:06:25;;;;;;;25.13;18.30;;;6.60;99.90;;;;;;5125470;27;20079;-53
2023/02/27 13:08:56;;;;;;;42.90;27.98;;;6.70;99.90;;;;;;5100968;28;20042;-54
2023/02/27 13:11:43;;;;;;;32.55;22.90;;;7.10;99.90;;;;;;5121541;27;20090;-52
2023/02/27 13:14:28;;;;;;;32.60;23.58;;;;;;;;;;5126436;27;20089;-54
2023/02/27 13:17:12;;;;;;;30.85;22.00;;;;;;;;;;5119432;27;20039;-52